sensor_id;sensor_type;location;lat;lon;timestamp;P1;durP1;ratioP1;P2;durP2;ratioP2
3000;SDS011;1510;51.072;6.678;2023-07-20T00:00:00;26.37;;;24.37;;
3000;SDS011;1510;51.072;6.678;2023-07-20T00:02:26;28.20;;;23.70;;
3000;SDS011;1510;51.072;6.678;2023-07-20T00:04:53;23.33;;;21.40;;
3000;SDS011;1510;51.072;6.678;2023-07-20T00:07:20;22.47;;;20.70;;
3000;SDS011;1510;51.072;6.678;2023-07-20T00:09:47;20.00;;;18.10;;
3000;SDS011;1510;51.072;6.678;2023-07-20T00:12:14;19.20;;;17.47;;
3000;SDS011;1510;51.072;6.678;2023-07-20T00:14:42;20.60;;;19.00;;
3000;SDS011;1510;51.072;6.678;2023-07-20T00:17:08;18.60;;;16.70;;
3000;SDS011;1510;51.072;6.678;2023-07-20T00:19:35;19.73;;;18.30;;
3000;SDS011;1510;51.072;6.678;2023-07-20T00:22:02;18.80;;;17.60;;
3000;SDS011;1510;51.072;6.678;2023-07-20T00:24:30;16.77;;;15.27;;
3000;SDS011;1510;51.072;6.678;2023-07-20T00:26:58;15.10;;;13.97;;
3000;SDS011;1510;51.072;6.678;2023-07-20T00:29:26;15.30;;;14.10;;
3000;SDS011;1510;51.072;6.678;2023-07-20T00:31:54;15.33;;;14.33;;
3000;SDS011;1510;51.072;6.678;2023-07-20T00:34:21;15.90;;;12.80;;
3000;SDS011;1510;51.072;6.678;2023-07-20T00:36:48;23.80;;;15.20;;
3000;SDS011;1510;51.072;6.678;2023-07-20T00:39:15;22.83;;;16.40;;
3000;SDS011;1510;51.072;6.678;2023-07-20T00:41:42;23.27;;;21.60;;
3000;SDS011;1510;51.072;6.678;2023-07-20T00:44:09;19.90;;;17.90;;
3000;SDS011;1510;51.072;6.678;2023-07-20T00:46:35;19.33;;;17.73;;
3000;SDS011;1510;51.072;6.678;2023-07-20T00:49:04;21.33;;;19.90;;
3000;SDS011;1510;51.072;6.678;2023-07-20T00:51:31;21.80;;;20.30;;
3000;SDS011;1510;51.072;6.678;2023-07-20T00:53:58;22.80;;;20.53;;
3000;SDS011;1510;51.072;6.678;2023-07-20T00:56:25;19.63;;;17.97;;
3000;SDS011;1510;51.072;6.678;2023-07-20T00:58:52;22.90;;;17.30;;
3000;SDS011;1510;51.072;6.678;2023-07-20T01:01:19;17.93;;;16.43;;
3000;SDS011;1510;51.072;6.678;2023-07-20T01:03:46;20.10;;;18.70;;
3000;SDS011;1510;51.072;6.678;2023-07-20T01:06:17;21.17;;;19.53;;
3000;SDS011;1510;51.072;6.678;2023-07-20T01:08:57;22.50;;;20.93;;
3000;SDS011;1510;51.072;6.678;2023-07-20T01:11:32;27.20;;;25.47;;
3000;SDS011;1510;51.072;6.678;2023-07-20T01:14:04;38.67;;;36.77;;
3000;SDS011;1510;51.072;6.678;2023-07-20T01:16:32;54.50;;;52.10;;
3000;SDS011;1510;51.072;6.678;2023-07-20T01:18:59;135.77;;;130.87;;
3000;SDS011;1510;51.072;6.678;2023-07-20T01:21:28;306.13;;;294.90;;
3000;SDS011;1510;51.072;6.678;2023-07-20T01:24:15;390.90;;;375.83;;
3000;SDS011;1510;51.072;6.678;2023-07-20T01:30:35;791.83;;;752.63;;
3000;SDS011;1510;51.072;6.678;2023-07-20T01:33:21;803.03;;;759.33;;
3000;SDS011;1510;51.072;6.678;2023-07-20T01:35:53;819.80;;;771.60;;
3000;SDS011;1510;51.072;6.678;2023-07-20T01:38:22;841.70;;;791.20;;
3000;SDS011;1510;51.072;6.678;2023-07-20T01:40:50;885.50;;;830.20;;
3000;SDS011;1510;51.072;6.678;2023-07-20T01:43:18;882.17;;;826.57;;
3000;SDS011;1510;51.072;6.678;2023-07-20T01:45:45;881.73;;;825.93;;
3000;SDS011;1510;51.072;6.678;2023-07-20T01:48:11;923.00;;;863.47;;
3000;SDS011;1510;51.072;6.678;2023-07-20T01:50:40;917.10;;;856.77;;
3000;SDS011;1510;51.072;6.678;2023-07-20T01:53:06;926.60;;;864.47;;
3000;SDS011;1510;51.072;6.678;2023-07-20T01:55:33;944.97;;;880.57;;
3000;SDS011;1510;51.072;6.678;2023-07-20T01:58:00;959.53;;;892.60;;
3000;SDS011;1510;51.072;6.678;2023-07-20T02:00:28;963.80;;;896.80;;
3000;SDS011;1510;51.072;6.678;2023-07-20T02:02:55;964.83;;;897.70;;
3000;SDS011;1510;51.072;6.678;2023-07-20T02:05:22;961.77;;;894.17;;
3000;SDS011;1510;51.072;6.678;2023-07-20T02:07:50;966.20;;;897.60;;
3000;SDS011;1510;51.072;6.678;2023-07-20T02:10:16;977.23;;;907.60;;
3000;SDS011;1510;51.072;6.678;2023-07-20T02:12:43;968.67;;;899.10;;
3000;SDS011;1510;51.072;6.678;2023-07-20T02:15:10;961.57;;;892.60;;
3000;SDS011;1510;51.072;6.678;2023-07-20T02:17:38;960.63;;;890.67;;
3000;SDS011;1510;51.072;6.678;2023-07-20T02:20:06;975.87;;;903.80;;
3000;SDS011;1510;51.072;6.678;2023-07-20T02:22:35;963.27;;;891.33;;
3000;SDS011;1510;51.072;6.678;2023-07-20T02:25:04;955.33;;;883.40;;
3000;SDS011;1510;51.072;6.678;2023-07-20T02:27:31;928.10;;;856.70;;
3000;SDS011;1510;51.072;6.678;2023-07-20T02:29:57;928.17;;;855.47;;
3000;SDS011;1510;51.072;6.678;2023-07-20T02:32:24;938.30;;;863.30;;
3000;SDS011;1510;51.072;6.678;2023-07-20T02:34:51;956.67;;;878.27;;
3000;SDS011;1510;51.072;6.678;2023-07-20T02:37:18;968.57;;;889.90;;
3000;SDS011;1510;51.072;6.678;2023-07-20T02:39:45;955.37;;;877.50;;
3000;SDS011;1510;51.072;6.678;2023-07-20T02:42:13;946.50;;;869.53;;
3000;SDS011;1510;51.072;6.678;2023-07-20T02:44:40;942.80;;;865.93;;
3000;SDS011;1510;51.072;6.678;2023-07-20T02:47:06;931.90;;;856.70;;
3000;SDS011;1510;51.072;6.678;2023-07-20T02:49:34;930.30;;;855.27;;
3000;SDS011;1510;51.072;6.678;2023-07-20T02:52:00;910.47;;;836.37;;
3000;SDS011;1510;51.072;6.678;2023-07-20T02:54:28;915.70;;;842.00;;
3000;SDS011;1510;51.072;6.678;2023-07-20T02:56:56;901.00;;;827.70;;
3000;SDS011;1510;51.072;6.678;2023-07-20T02:59:24;907.47;;;833.90;;
3000;SDS011;1510;51.072;6.678;2023-07-20T03:01:51;901.53;;;828.30;;
3000;SDS011;1510;51.072;6.678;2023-07-20T03:04:19;881.57;;;810.20;;
3000;SDS011;1510;51.072;6.678;2023-07-20T03:06:46;876.47;;;805.30;;
3000;SDS011;1510;51.072;6.678;2023-07-20T03:09:13;866.53;;;797.33;;
3000;SDS011;1510;51.072;6.678;2023-07-20T03:11:40;859.77;;;790.80;;
3000;SDS011;1510;51.072;6.678;2023-07-20T03:14:07;839.90;;;770.33;;
3000;SDS011;1510;51.072;6.678;2023-07-20T03:16:37;820.10;;;747.80;;
3000;SDS011;1510;51.072;6.678;2023-07-20T03:19:04;819.73;;;748.33;;
3000;SDS011;1510;51.072;6.678;2023-07-20T03:21:30;819.50;;;747.97;;
3000;SDS011;1510;51.072;6.678;2023-07-20T03:23:57;813.97;;;741.30;;
3000;SDS011;1510;51.072;6.678;2023-07-20T03:26:24;815.50;;;742.07;;
3000;SDS011;1510;51.072;6.678;2023-07-20T03:28:51;812.67;;;738.57;;
3000;SDS011;1510;51.072;6.678;2023-07-20T03:31:17;813.17;;;739.23;;
3000;SDS011;1510;51.072;6.678;2023-07-20T03:33:46;810.13;;;736.23;;
3000;SDS011;1510;51.072;6.678;2023-07-20T03:36:13;810.50;;;737.60;;
3000;SDS011;1510;51.072;6.678;2023-07-20T03:38:40;823.60;;;751.20;;
3000;SDS011;1510;51.072;6.678;2023-07-20T03:41:06;824.17;;;752.27;;
3000;SDS011;1510;51.072;6.678;2023-07-20T03:43:34;826.00;;;754.70;;
3000;SDS011;1510;51.072;6.678;2023-07-20T03:46:01;840.23;;;770.30;;
3000;SDS011;1510;51.072;6.678;2023-07-20T03:48:31;827.60;;;757.97;;
3000;SDS011;1510;51.072;6.678;2023-07-20T03:51:00;834.17;;;764.27;;
3000;SDS011;1510;51.072;6.678;2023-07-20T03:53:26;828.17;;;758.10;;
3000;SDS011;1510;51.072;6.678;2023-07-20T03:55:53;828.00;;;761.23;;
3000;SDS011;1510;51.072;6.678;2023-07-20T03:58:21;829.70;;;763.43;;
3000;SDS011;1510;51.072;6.678;2023-07-20T04:00:48;848.03;;;781.67;;
3000;SDS011;1510;51.072;6.678;2023-07-20T04:03:16;846.50;;;780.10;;
3000;SDS011;1510;51.072;6.678;2023-07-20T04:05:43;840.93;;;774.03;;
3000;SDS011;1510;51.072;6.678;2023-07-20T04:08:12;835.80;;;769.43;;
3000;SDS011;1510;51.072;6.678;2023-07-20T04:10:38;837.93;;;771.67;;
3000;SDS011;1510;51.072;6.678;2023-07-20T04:13:05;840.10;;;772.73;;
3000;SDS011;1510;51.072;6.678;2023-07-20T04:15:32;842.53;;;774.93;;
3000;SDS011;1510;51.072;6.678;2023-07-20T04:17:59;844.30;;;776.70;;
3000;SDS011;1510;51.072;6.678;2023-07-20T04:20:26;840.87;;;774.90;;
3000;SDS011;1510;51.072;6.678;2023-07-20T04:22:53;839.10;;;773.70;;
3000;SDS011;1510;51.072;6.678;2023-07-20T04:25:21;835.90;;;772.00;;
3000;SDS011;1510;51.072;6.678;2023-07-20T04:27:48;842.33;;;779.83;;
3000;SDS011;1510;51.072;6.678;2023-07-20T04:30:17;848.73;;;787.53;;
3000;SDS011;1510;51.072;6.678;2023-07-20T04:32:46;850.90;;;790.37;;
3000;SDS011;1510;51.072;6.678;2023-07-20T04:35:16;853.50;;;793.50;;
3000;SDS011;1510;51.072;6.678;2023-07-20T04:37:44;842.77;;;784.87;;
3000;SDS011;1510;51.072;6.678;2023-07-20T04:40:11;849.43;;;792.33;;
3000;SDS011;1510;51.072;6.678;2023-07-20T04:42:40;851.33;;;794.00;;
3000;SDS011;1510;51.072;6.678;2023-07-20T04:45:07;857.13;;;799.77;;
3000;SDS011;1510;51.072;6.678;2023-07-20T04:47:34;849.80;;;792.37;;
3000;SDS011;1510;51.072;6.678;2023-07-20T04:50:01;850.23;;;792.50;;
3000;SDS011;1510;51.072;6.678;2023-07-20T04:52:28;855.50;;;798.17;;
3000;SDS011;1510;51.072;6.678;2023-07-20T04:54:55;856.90;;;799.37;;
3000;SDS011;1510;51.072;6.678;2023-07-20T04:57:23;852.33;;;796.03;;
3000;SDS011;1510;51.072;6.678;2023-07-20T04:59:51;859.33;;;803.30;;
3000;SDS011;1510;51.072;6.678;2023-07-20T05:02:18;861.60;;;807.03;;
3000;SDS011;1510;51.072;6.678;2023-07-20T05:04:45;865.00;;;810.50;;
3000;SDS011;1510;51.072;6.678;2023-07-20T05:07:12;854.47;;;798.77;;
3000;SDS011;1510;51.072;6.678;2023-07-20T05:09:39;861.17;;;803.13;;
3000;SDS011;1510;51.072;6.678;2023-07-20T05:12:06;849.67;;;793.87;;
3000;SDS011;1510;51.072;6.678;2023-07-20T05:14:33;858.17;;;800.60;;
3000;SDS011;1510;51.072;6.678;2023-07-20T05:17:01;854.40;;;800.07;;
3000;SDS011;1510;51.072;6.678;2023-07-20T05:19:28;844.50;;;793.27;;
3000;SDS011;1510;51.072;6.678;2023-07-20T05:21:55;848.13;;;795.30;;
3000;SDS011;1510;51.072;6.678;2023-07-20T05:24:22;849.23;;;796.97;;
3000;SDS011;1510;51.072;6.678;2023-07-20T05:26:50;850.47;;;800.27;;
3000;SDS011;1510;51.072;6.678;2023-07-20T05:29:16;844.20;;;793.07;;
3000;SDS011;1510;51.072;6.678;2023-07-20T05:31:43;825.17;;;776.23;;
3000;SDS011;1510;51.072;6.678;2023-07-20T05:34:11;807.67;;;761.63;;
3000;SDS011;1510;51.072;6.678;2023-07-20T05:36:38;782.67;;;740.27;;
3000;SDS011;1510;51.072;6.678;2023-07-20T05:39:05;677.47;;;642.40;;
3000;SDS011;1510;51.072;6.678;2023-07-20T05:41:32;688.67;;;656.43;;
3000;SDS011;1510;51.072;6.678;2023-07-20T05:43:59;569.77;;;545.07;;
3000;SDS011;1510;51.072;6.678;2023-07-20T05:46:26;511.87;;;491.07;;
3000;SDS011;1510;51.072;6.678;2023-07-20T05:48:52;439.43;;;422.20;;
3000;SDS011;1510;51.072;6.678;2023-07-20T05:51:21;404.50;;;388.30;;
3000;SDS011;1510;51.072;6.678;2023-07-20T05:53:47;433.13;;;416.43;;
3000;SDS011;1510;51.072;6.678;2023-07-20T05:56:14;514.00;;;493.10;;
3000;SDS011;1510;51.072;6.678;2023-07-20T05:58:41;379.07;;;365.00;;
3000;SDS011;1510;51.072;6.678;2023-07-20T06:01:08;517.47;;;496.17;;
3000;SDS011;1510;51.072;6.678;2023-07-20T06:03:35;484.97;;;465.13;;
3000;SDS011;1510;51.072;6.678;2023-07-20T06:06:02;558.20;;;534.73;;
3000;SDS011;1510;51.072;6.678;2023-07-20T06:08:32;384.80;;;370.33;;
3000;SDS011;1510;51.072;6.678;2023-07-20T06:10:59;295.37;;;283.20;;
3000;SDS011;1510;51.072;6.678;2023-07-20T06:13:26;202.47;;;194.87;;
3000;SDS011;1510;51.072;6.678;2023-07-20T06:15:53;180.27;;;172.67;;
3000;SDS011;1510;51.072;6.678;2023-07-20T06:18:20;103.83;;;98.53;;
3000;SDS011;1510;51.072;6.678;2023-07-20T06:20:48;100.80;;;96.03;;
3000;SDS011;1510;51.072;6.678;2023-07-20T06:23:16;205.93;;;198.00;;
3000;SDS011;1510;51.072;6.678;2023-07-20T06:25:44;97.87;;;92.67;;
3000;SDS011;1510;51.072;6.678;2023-07-20T06:28:13;117.17;;;111.37;;
3000;SDS011;1510;51.072;6.678;2023-07-20T06:30:40;58.50;;;54.90;;
3000;SDS011;1510;51.072;6.678;2023-07-20T06:33:06;61.77;;;58.17;;
3000;SDS011;1510;51.072;6.678;2023-07-20T06:35:33;25.90;;;21.13;;
3000;SDS011;1510;51.072;6.678;2023-07-20T06:38:00;21.70;;;19.43;;
3000;SDS011;1510;51.072;6.678;2023-07-20T06:40:28;17.83;;;14.17;;
3000;SDS011;1510;51.072;6.678;2023-07-20T06:42:57;19.77;;;16.03;;
3000;SDS011;1510;51.072;6.678;2023-07-20T06:45:23;16.73;;;14.10;;
3000;SDS011;1510;51.072;6.678;2023-07-20T06:47:50;23.40;;;15.40;;
3000;SDS011;1510;51.072;6.678;2023-07-20T06:50:17;20.70;;;16.00;;
3000;SDS011;1510;51.072;6.678;2023-07-20T06:52:44;17.63;;;13.90;;
3000;SDS011;1510;51.072;6.678;2023-07-20T06:55:12;18.77;;;16.83;;
3000;SDS011;1510;51.072;6.678;2023-07-20T06:57:39;16.43;;;14.57;;
3000;SDS011;1510;51.072;6.678;2023-07-20T07:00:08;19.57;;;12.97;;
3000;SDS011;1510;51.072;6.678;2023-07-20T07:02:36;16.83;;;12.20;;
3000;SDS011;1510;51.072;6.678;2023-07-20T07:05:03;18.27;;;11.10;;
3000;SDS011;1510;51.072;6.678;2023-07-20T07:07:30;16.13;;;11.63;;
3000;SDS011;1510;51.072;6.678;2023-07-20T07:09:57;15.00;;;9.40;;
3000;SDS011;1510;51.072;6.678;2023-07-20T07:12:25;12.00;;;8.77;;
3000;SDS011;1510;51.072;6.678;2023-07-20T07:14:51;15.03;;;9.63;;
3000;SDS011;1510;51.072;6.678;2023-07-20T07:17:20;12.93;;;8.60;;
3000;SDS011;1510;51.072;6.678;2023-07-20T07:19:46;13.30;;;9.47;;
3000;SDS011;1510;51.072;6.678;2023-07-20T07:22:13;11.33;;;8.07;;
3000;SDS011;1510;51.072;6.678;2023-07-20T07:24:40;10.93;;;6.53;;
3000;SDS011;1510;51.072;6.678;2023-07-20T07:27:07;11.53;;;6.97;;
3000;SDS011;1510;51.072;6.678;2023-07-20T07:29:35;11.73;;;6.80;;
3000;SDS011;1510;51.072;6.678;2023-07-20T07:32:01;9.43;;;6.27;;
3000;SDS011;1510;51.072;6.678;2023-07-20T07:34:30;11.70;;;6.57;;
3000;SDS011;1510;51.072;6.678;2023-07-20T07:36:59;8.83;;;6.73;;
3000;SDS011;1510;51.072;6.678;2023-07-20T07:39:26;13.60;;;8.90;;
3000;SDS011;1510;51.072;6.678;2023-07-20T07:41:54;11.67;;;7.70;;
3000;SDS011;1510;51.072;6.678;2023-07-20T07:44:21;12.20;;;7.83;;
3000;SDS011;1510;51.072;6.678;2023-07-20T07:46:48;13.93;;;7.67;;
3000;SDS011;1510;51.072;6.678;2023-07-20T07:49:15;10.93;;;8.40;;
3000;SDS011;1510;51.072;6.678;2023-07-20T07:51:45;11.30;;;7.80;;
3000;SDS011;1510;51.072;6.678;2023-07-20T07:54:12;11.10;;;7.57;;
3000;SDS011;1510;51.072;6.678;2023-07-20T07:56:39;13.00;;;7.70;;
3000;SDS011;1510;51.072;6.678;2023-07-20T07:59:06;11.10;;;6.30;;
3000;SDS011;1510;51.072;6.678;2023-07-20T08:01:33;10.20;;;5.80;;
3000;SDS011;1510;51.072;6.678;2023-07-20T08:03:59;13.57;;;7.27;;
3000;SDS011;1510;51.072;6.678;2023-07-20T08:06:26;12.40;;;7.03;;
3000;SDS011;1510;51.072;6.678;2023-07-20T08:08:55;6.97;;;4.70;;
3000;SDS011;1510;51.072;6.678;2023-07-20T08:11:21;9.13;;;4.90;;
3000;SDS011;1510;51.072;6.678;2023-07-20T08:13:49;8.60;;;5.27;;
3000;SDS011;1510;51.072;6.678;2023-07-20T08:16:16;11.97;;;5.30;;
3000;SDS011;1510;51.072;6.678;2023-07-20T08:18:43;11.73;;;5.50;;
3000;SDS011;1510;51.072;6.678;2023-07-20T08:21:10;8.00;;;4.70;;
3000;SDS011;1510;51.072;6.678;2023-07-20T08:23:37;11.27;;;6.10;;
3000;SDS011;1510;51.072;6.678;2023-07-20T08:26:05;9.10;;;4.73;;
3000;SDS011;1510;51.072;6.678;2023-07-20T08:28:32;7.47;;;3.73;;
3000;SDS011;1510;51.072;6.678;2023-07-20T08:30:59;8.80;;;3.00;;
3000;SDS011;1510;51.072;6.678;2023-07-20T08:33:25;8.30;;;3.20;;
3000;SDS011;1510;51.072;6.678;2023-07-20T08:35:54;9.67;;;3.73;;
3000;SDS011;1510;51.072;6.678;2023-07-20T08:38:21;6.73;;;3.13;;
3000;SDS011;1510;51.072;6.678;2023-07-20T08:40:48;8.00;;;3.77;;
3000;SDS011;1510;51.072;6.678;2023-07-20T08:43:17;7.13;;;3.70;;
3000;SDS011;1510;51.072;6.678;2023-07-20T08:45:44;7.43;;;3.37;;
3000;SDS011;1510;51.072;6.678;2023-07-20T08:48:11;8.60;;;3.57;;
3000;SDS011;1510;51.072;6.678;2023-07-20T08:50:38;7.90;;;4.33;;
3000;SDS011;1510;51.072;6.678;2023-07-20T08:53:07;7.07;;;3.00;;
3000;SDS011;1510;51.072;6.678;2023-07-20T08:55:34;5.60;;;2.27;;
3000;SDS011;1510;51.072;6.678;2023-07-20T08:58:02;6.33;;;2.60;;
3000;SDS011;1510;51.072;6.678;2023-07-20T09:00:33;8.70;;;2.80;;
3000;SDS011;1510;51.072;6.678;2023-07-20T09:03:02;5.10;;;1.80;;
3000;SDS011;1510;51.072;6.678;2023-07-20T09:05:29;7.43;;;2.00;;
3000;SDS011;1510;51.072;6.678;2023-07-20T09:07:56;5.20;;;2.00;;
3000;SDS011;1510;51.072;6.678;2023-07-20T09:10:23;7.33;;;2.67;;
3000;SDS011;1510;51.072;6.678;2023-07-20T09:12:50;5.50;;;2.10;;
3000;SDS011;1510;51.072;6.678;2023-07-20T09:15:18;5.80;;;2.50;;
3000;SDS011;1510;51.072;6.678;2023-07-20T09:17:47;5.73;;;1.90;;
3000;SDS011;1510;51.072;6.678;2023-07-20T09:20:15;5.93;;;2.60;;
3000;SDS011;1510;51.072;6.678;2023-07-20T09:22:43;5.40;;;2.33;;
3000;SDS011;1510;51.072;6.678;2023-07-20T09:25:11;6.77;;;3.70;;
3000;SDS011;1510;51.072;6.678;2023-07-20T09:27:39;6.10;;;2.50;;
3000;SDS011;1510;51.072;6.678;2023-07-20T09:30:07;6.80;;;2.83;;
3000;SDS011;1510;51.072;6.678;2023-07-20T09:32:39;6.20;;;2.90;;
3000;SDS011;1510;51.072;6.678;2023-07-20T09:35:13;6.70;;;2.60;;
3000;SDS011;1510;51.072;6.678;2023-07-20T09:37:46;5.83;;;2.30;;
3000;SDS011;1510;51.072;6.678;2023-07-20T09:40:17;6.37;;;2.40;;
3000;SDS011;1510;51.072;6.678;2023-07-20T09:42:44;5.50;;;1.90;;
3000;SDS011;1510;51.072;6.678;2023-07-20T09:45:12;4.97;;;1.77;;
3000;SDS011;1510;51.072;6.678;2023-07-20T09:47:39;6.00;;;2.10;;
3000;SDS011;1510;51.072;6.678;2023-07-20T09:50:06;5.50;;;2.17;;
3000;SDS011;1510;51.072;6.678;2023-07-20T09:52:37;6.03;;;1.80;;
3000;SDS011;1510;51.072;6.678;2023-07-20T09:55:06;5.00;;;1.83;;
3000;SDS011;1510;51.072;6.678;2023-07-20T09:57:33;5.30;;;1.83;;
3000;SDS011;1510;51.072;6.678;2023-07-20T10:00:01;5.17;;;2.13;;
3000;SDS011;1510;51.072;6.678;2023-07-20T10:02:33;5.30;;;1.80;;
3000;SDS011;1510;51.072;6.678;2023-07-20T10:05:03;4.80;;;1.67;;
3000;SDS011;1510;51.072;6.678;2023-07-20T10:07:30;5.03;;;1.60;;
3000;SDS011;1510;51.072;6.678;2023-07-20T10:10:00;6.10;;;1.50;;
3000;SDS011;1510;51.072;6.678;2023-07-20T10:12:30;6.03;;;1.63;;
3000;SDS011;1510;51.072;6.678;2023-07-20T10:14:59;5.83;;;2.00;;
3000;SDS011;1510;51.072;6.678;2023-07-20T10:17:36;7.23;;;1.70;;
3000;SDS011;1510;51.072;6.678;2023-07-20T10:20:06;7.80;;;2.20;;
3000;SDS011;1510;51.072;6.678;2023-07-20T10:22:36;5.70;;;1.87;;
3000;SDS011;1510;51.072;6.678;2023-07-20T10:25:06;6.53;;;1.50;;
3000;SDS011;1510;51.072;6.678;2023-07-20T10:27:33;4.47;;;1.27;;
3000;SDS011;1510;51.072;6.678;2023-07-20T10:30:00;5.67;;;1.43;;
3000;SDS011;1510;51.072;6.678;2023-07-20T10:32:29;4.30;;;1.20;;
3000;SDS011;1510;51.072;6.678;2023-07-20T10:34:56;5.43;;;1.40;;
3000;SDS011;1510;51.072;6.678;2023-07-20T10:40:26;5.17;;;1.30;;
3000;SDS011;1510;51.072;6.678;2023-07-20T10:42:58;7.60;;;1.57;;
3000;SDS011;1510;51.072;6.678;2023-07-20T10:45:35;7.33;;;1.43;;
3000;SDS011;1510;51.072;6.678;2023-07-20T10:48:13;4.87;;;1.40;;
3000;SDS011;1510;51.072;6.678;2023-07-20T10:50:41;5.20;;;1.30;;
3000;SDS011;1510;51.072;6.678;2023-07-20T10:53:15;4.80;;;1.40;;
3000;SDS011;1510;51.072;6.678;2023-07-20T10:55:44;6.57;;;1.57;;
3000;SDS011;1510;51.072;6.678;2023-07-20T10:58:12;4.70;;;1.10;;
3000;SDS011;1510;51.072;6.678;2023-07-20T11:00:59;5.30;;;1.60;;
3000;SDS011;1510;51.072;6.678;2023-07-20T11:03:27;4.53;;;1.00;;
3000;SDS011;1510;51.072;6.678;2023-07-20T11:05:58;4.20;;;1.10;;
3000;SDS011;1510;51.072;6.678;2023-07-20T11:08:38;5.73;;;1.30;;
3000;SDS011;1510;51.072;6.678;2023-07-20T11:11:22;5.07;;;1.37;;
3000;SDS011;1510;51.072;6.678;2023-07-20T11:13:53;4.60;;;1.00;;
3000;SDS011;1510;51.072;6.678;2023-07-20T11:16:32;5.40;;;1.27;;
3000;SDS011;1510;51.072;6.678;2023-07-20T11:19:03;4.10;;;1.10;;
3000;SDS011;1510;51.072;6.678;2023-07-20T11:21:34;4.70;;;1.20;;
3000;SDS011;1510;51.072;6.678;2023-07-20T11:24:03;6.37;;;1.73;;
3000;SDS011;1510;51.072;6.678;2023-07-20T11:26:40;4.90;;;1.20;;
3000;SDS011;1510;51.072;6.678;2023-07-20T11:29:08;4.40;;;1.13;;
3000;SDS011;1510;51.072;6.678;2023-07-20T11:31:35;5.00;;;1.43;;
3000;SDS011;1510;51.072;6.678;2023-07-20T11:34:03;4.70;;;1.43;;
3000;SDS011;1510;51.072;6.678;2023-07-20T11:36:29;4.13;;;1.10;;
3000;SDS011;1510;51.072;6.678;2023-07-20T11:38:56;4.40;;;1.10;;
3000;SDS011;1510;51.072;6.678;2023-07-20T11:41:24;4.93;;;1.13;;
3000;SDS011;1510;51.072;6.678;2023-07-20T11:43:53;6.77;;;1.30;;
3000;SDS011;1510;51.072;6.678;2023-07-20T11:46:20;4.60;;;1.33;;
3000;SDS011;1510;51.072;6.678;2023-07-20T11:48:47;5.50;;;1.40;;
3000;SDS011;1510;51.072;6.678;2023-07-20T11:51:14;5.23;;;1.50;;
3000;SDS011;1510;51.072;6.678;2023-07-20T11:53:42;5.90;;;1.43;;
3000;SDS011;1510;51.072;6.678;2023-07-20T11:56:10;5.33;;;1.10;;
3000;SDS011;1510;51.072;6.678;2023-07-20T11:58:41;4.87;;;1.37;;
3000;SDS011;1510;51.072;6.678;2023-07-20T12:01:11;7.30;;;1.20;;
3000;SDS011;1510;51.072;6.678;2023-07-20T12:03:38;7.13;;;1.40;;
3000;SDS011;1510;51.072;6.678;2023-07-20T12:06:08;4.83;;;1.60;;
3000;SDS011;1510;51.072;6.678;2023-07-20T12:08:34;5.20;;;1.37;;
3000;SDS011;1510;51.072;6.678;2023-07-20T12:11:04;5.70;;;1.17;;
3000;SDS011;1510;51.072;6.678;2023-07-20T12:13:38;8.30;;;1.40;;
3000;SDS011;1510;51.072;6.678;2023-07-20T12:16:11;4.40;;;1.00;;
3000;SDS011;1510;51.072;6.678;2023-07-20T12:18:39;4.50;;;1.10;;
3000;SDS011;1510;51.072;6.678;2023-07-20T12:21:06;5.10;;;1.20;;
3000;SDS011;1510;51.072;6.678;2023-07-20T12:23:37;5.30;;;1.30;;
3000;SDS011;1510;51.072;6.678;2023-07-20T12:26:08;7.30;;;1.47;;
3000;SDS011;1510;51.072;6.678;2023-07-20T12:28:36;4.93;;;1.17;;
3000;SDS011;1510;51.072;6.678;2023-07-20T12:31:06;6.17;;;1.33;;
3000;SDS011;1510;51.072;6.678;2023-07-20T12:33:34;4.20;;;1.17;;
3000;SDS011;1510;51.072;6.678;2023-07-20T12:36:01;4.30;;;1.00;;
3000;SDS011;1510;51.072;6.678;2023-07-20T12:38:28;4.80;;;1.30;;
3000;SDS011;1510;51.072;6.678;2023-07-20T12:40:56;4.33;;;1.30;;
3000;SDS011;1510;51.072;6.678;2023-07-20T12:43:23;5.33;;;1.20;;
3000;SDS011;1510;51.072;6.678;2023-07-20T12:45:50;4.67;;;1.20;;
3000;SDS011;1510;51.072;6.678;2023-07-20T12:48:18;4.60;;;1.60;;
3000;SDS011;1510;51.072;6.678;2023-07-20T12:50:46;4.23;;;1.03;;
3000;SDS011;1510;51.072;6.678;2023-07-20T12:53:13;4.83;;;1.30;;
3000;SDS011;1510;51.072;6.678;2023-07-20T12:55:40;5.00;;;1.57;;
3000;SDS011;1510;51.072;6.678;2023-07-20T12:58:07;5.07;;;1.00;;
3000;SDS011;1510;51.072;6.678;2023-07-20T13:00:34;5.80;;;1.23;;
3000;SDS011;1510;51.072;6.678;2023-07-20T13:03:01;4.50;;;1.30;;
3000;SDS011;1510;51.072;6.678;2023-07-20T13:05:29;6.20;;;1.30;;
3000;SDS011;1510;51.072;6.678;2023-07-20T13:07:58;4.70;;;1.10;;
3000;SDS011;1510;51.072;6.678;2023-07-20T13:10:25;4.77;;;1.50;;
3000;SDS011;1510;51.072;6.678;2023-07-20T13:12:53;5.00;;;1.70;;
3000;SDS011;1510;51.072;6.678;2023-07-20T13:15:20;4.27;;;1.30;;
3000;SDS011;1510;51.072;6.678;2023-07-20T13:17:50;4.30;;;1.10;;
3000;SDS011;1510;51.072;6.678;2023-07-20T13:20:17;4.33;;;1.33;;
3000;SDS011;1510;51.072;6.678;2023-07-20T13:22:44;5.67;;;1.33;;
3000;SDS011;1510;51.072;6.678;2023-07-20T13:25:12;4.73;;;1.30;;
3000;SDS011;1510;51.072;6.678;2023-07-20T13:27:39;4.73;;;1.70;;
3000;SDS011;1510;51.072;6.678;2023-07-20T13:30:06;4.30;;;1.20;;
3000;SDS011;1510;51.072;6.678;2023-07-20T13:32:35;4.57;;;1.50;;
3000;SDS011;1510;51.072;6.678;2023-07-20T13:35:02;7.17;;;1.57;;
3000;SDS011;1510;51.072;6.678;2023-07-20T13:37:30;4.80;;;1.23;;
3000;SDS011;1510;51.072;6.678;2023-07-20T13:39:56;5.63;;;1.67;;
3000;SDS011;1510;51.072;6.678;2023-07-20T13:42:24;6.40;;;1.40;;
3000;SDS011;1510;51.072;6.678;2023-07-20T13:44:51;4.87;;;1.43;;
3000;SDS011;1510;51.072;6.678;2023-07-20T13:47:18;6.00;;;1.43;;
3000;SDS011;1510;51.072;6.678;2023-07-20T13:49:45;5.70;;;1.40;;
3000;SDS011;1510;51.072;6.678;2023-07-20T13:52:12;13.68;;;1.70;;
3000;SDS011;1510;51.072;6.678;2023-07-20T13:54:39;8.52;;;1.70;;
3000;SDS011;1510;51.072;6.678;2023-07-20T13:57:05;5.23;;;1.40;;
3000;SDS011;1510;51.072;6.678;2023-07-20T13:59:34;6.75;;;1.90;;
3000;SDS011;1510;51.072;6.678;2023-07-20T14:02:01;5.00;;;1.30;;
3000;SDS011;1510;51.072;6.678;2023-07-20T14:04:28;5.23;;;1.43;;
3000;SDS011;1510;51.072;6.678;2023-07-20T14:06:55;5.00;;;1.30;;
3000;SDS011;1510;51.072;6.678;2023-07-20T14:09:22;6.23;;;1.20;;
3000;SDS011;1510;51.072;6.678;2023-07-20T14:11:49;5.80;;;1.17;;
3000;SDS011;1510;51.072;6.678;2023-07-20T14:14:16;5.43;;;1.00;;
3000;SDS011;1510;51.072;6.678;2023-07-20T14:16:44;5.67;;;1.10;;
3000;SDS011;1510;51.072;6.678;2023-07-20T14:19:10;5.33;;;1.17;;
3000;SDS011;1510;51.072;6.678;2023-07-20T14:21:37;5.13;;;1.00;;
3000;SDS011;1510;51.072;6.678;2023-07-20T14:24:04;6.90;;;1.30;;
3000;SDS011;1510;51.072;6.678;2023-07-20T14:26:31;4.90;;;1.07;;
3000;SDS011;1510;51.072;6.678;2023-07-20T14:28:58;5.03;;;1.23;;
3000;SDS011;1510;51.072;6.678;2023-07-20T14:31:26;8.27;;;1.50;;
3000;SDS011;1510;51.072;6.678;2023-07-20T14:33:54;5.50;;;1.27;;
3000;SDS011;1510;51.072;6.678;2023-07-20T14:36:21;7.50;;;1.10;;
3000;SDS011;1510;51.072;6.678;2023-07-20T14:38:48;4.80;;;1.00;;
3000;SDS011;1510;51.072;6.678;2023-07-20T14:41:14;5.67;;;1.30;;
3000;SDS011;1510;51.072;6.678;2023-07-20T14:43:41;5.70;;;1.23;;
3000;SDS011;1510;51.072;6.678;2023-07-20T14:46:08;7.13;;;1.67;;
3000;SDS011;1510;51.072;6.678;2023-07-20T14:48:35;4.80;;;1.10;;
3000;SDS011;1510;51.072;6.678;2023-07-20T14:51:03;5.33;;;1.00;;
3000;SDS011;1510;51.072;6.678;2023-07-20T14:53:30;5.23;;;1.73;;
3000;SDS011;1510;51.072;6.678;2023-07-20T14:56:00;5.33;;;1.30;;
3000;SDS011;1510;51.072;6.678;2023-07-20T14:58:27;5.17;;;1.27;;
3000;SDS011;1510;51.072;6.678;2023-07-20T15:00:55;6.10;;;1.00;;
3000;SDS011;1510;51.072;6.678;2023-07-20T15:03:22;4.97;;;1.40;;